createdAt,value
2023-07-18T00:00:39.745Z,3.30
2023-07-18T00:01:39.760Z,3.60
2023-07-18T00:02:39.715Z,3.50
2023-07-18T00:03:39.712Z,4.00
2023-07-18T00:04:39.693Z,3.40
2023-07-18T00:05:39.653Z,3.90
2023-07-18T00:06:39.627Z,3.80
2023-07-18T00:07:39.636Z,3.60
2023-07-18T00:08:39.599Z,3.80
2023-07-18T00:09:39.614Z,3.80
2023-07-18T00:10:39.607Z,3.60
2023-07-18T00:11:39.594Z,3.50
2023-07-18T00:12:39.566Z,4.10
2023-07-18T00:13:39.595Z,3.70
2023-07-18T00:14:39.557Z,3.70
2023-07-18T00:15:39.577Z,3.80
2023-07-18T00:16:39.599Z,3.90
2023-07-18T00:17:39.549Z,3.90
2023-07-18T00:18:39.527Z,3.90
2023-07-18T00:19:39.517Z,3.70
2023-07-18T00:20:39.530Z,4.00
2023-07-18T00:21:39.505Z,3.80
2023-07-18T00:22:39.535Z,3.80
2023-07-18T00:23:39.487Z,3.70
2023-07-18T00:24:39.462Z,3.80
2023-07-18T00:25:39.492Z,3.90
2023-07-18T00:26:39.505Z,3.90
2023-07-18T00:27:39.453Z,3.90
2023-07-18T00:28:39.442Z,4.00
2023-07-18T00:29:39.471Z,3.70
2023-07-18T00:30:39.411Z,3.80
2023-07-18T00:31:39.532Z,4.00
2023-07-18T00:32:39.439Z,3.80
2023-07-18T00:33:39.422Z,3.90
2023-07-18T00:34:39.387Z,4.10
2023-07-18T00:35:39.425Z,3.80
2023-07-18T00:36:39.372Z,3.80
2023-07-18T00:37:39.396Z,4.10
2023-07-18T00:38:39.350Z,4.10
2023-07-18T00:39:39.369Z,4.30
2023-07-18T00:40:39.352Z,3.90
2023-07-18T00:41:39.342Z,4.50
2023-07-18T00:42:39.360Z,4.00
2023-07-18T00:43:39.339Z,4.30
2023-07-18T00:44:39.317Z,4.00
2023-07-18T00:45:39.348Z,4.20
2023-07-18T00:46:39.381Z,4.30
2023-07-18T00:47:39.322Z,4.50
2023-07-18T00:48:39.325Z,4.30
2023-07-18T00:49:39.293Z,4.20
2023-07-18T00:50:39.266Z,4.40
2023-07-18T00:51:39.269Z,4.70
2023-07-18T00:52:39.284Z,4.40
2023-07-18T00:53:39.277Z,4.30
2023-07-18T00:54:39.222Z,4.40
2023-07-18T00:55:39.242Z,4.70
2023-07-18T00:56:39.200Z,4.40
2023-07-18T00:57:39.218Z,4.70
2023-07-18T00:58:39.194Z,4.90
2023-07-18T00:59:39.191Z,4.70
2023-07-18T01:00:39.175Z,4.40
2023-07-18T01:01:39.197Z,4.50
2023-07-18T01:02:39.295Z,4.60
2023-07-18T01:03:39.196Z,4.90
2023-07-18T01:04:39.174Z,4.30
2023-07-18T01:05:39.169Z,4.80
2023-07-18T01:06:39.157Z,4.30
2023-07-18T01:07:39.139Z,4.40
2023-07-18T01:08:39.167Z,4.50
2023-07-18T01:09:39.138Z,4.50
2023-07-18T01:10:39.118Z,4.80
2023-07-18T01:11:39.097Z,4.70
2023-07-18T01:12:39.073Z,4.20
2023-07-18T01:13:39.099Z,4.20
2023-07-18T01:14:39.072Z,4.50
2023-07-18T01:15:39.169Z,5.00
2023-07-18T01:16:39.053Z,4.90
2023-07-18T01:17:39.116Z,4.70
2023-07-18T01:18:39.025Z,4.50
2023-07-18T01:19:39.051Z,4.60
2023-07-18T01:20:39.061Z,4.30
2023-07-18T01:21:39.071Z,4.90
2023-07-18T01:22:39.046Z,5.10
2023-07-18T01:23:39.020Z,4.90
2023-07-18T01:24:38.984Z,4.70
2023-07-18T01:25:39.000Z,4.30
2023-07-18T01:26:38.968Z,4.70
2023-07-18T01:27:38.991Z,4.90
2023-07-18T01:28:38.969Z,5.50
2023-07-18T01:29:38.964Z,5.10
2023-07-18T01:30:38.961Z,5.10
2023-07-18T01:31:38.994Z,5.10
2023-07-18T01:32:38.977Z,4.90
2023-07-18T01:33:38.977Z,5.00
2023-07-18T01:34:38.905Z,5.00
2023-07-18T01:35:38.922Z,5.00
2023-07-18T01:36:38.928Z,4.80
2023-07-18T01:37:38.904Z,4.90
2023-07-18T01:38:38.881Z,4.90
2023-07-18T01:39:38.875Z,4.70
2023-07-18T01:40:38.867Z,4.70
2023-07-18T01:41:38.889Z,5.00
2023-07-18T01:42:38.904Z,4.40
2023-07-18T01:43:38.876Z,4.60
2023-07-18T01:44:38.862Z,4.60
2023-07-18T01:45:38.852Z,5.00
2023-07-18T01:46:38.821Z,4.70
2023-07-18T01:47:38.929Z,5.20
2023-07-18T01:48:38.815Z,5.00
2023-07-18T01:49:38.795Z,5.50
2023-07-18T01:50:38.782Z,5.50
2023-07-18T01:51:38.807Z,5.70
2023-07-18T01:52:38.780Z,6.00
2023-07-18T01:53:38.792Z,5.30
2023-07-18T01:54:38.752Z,5.40
2023-07-18T01:55:38.756Z,5.10
2023-07-18T01:56:38.728Z,5.80
2023-07-18T01:57:38.738Z,5.50
2023-07-18T01:58:38.723Z,5.50
2023-07-18T01:59:38.737Z,5.80
2023-07-18T02:00:38.754Z,5.60
2023-07-18T02:01:38.715Z,5.30
2023-07-18T02:02:38.815Z,5.40
2023-07-18T02:03:38.734Z,5.40
2023-07-18T02:04:38.676Z,6.10
2023-07-18T02:05:38.677Z,6.00
2023-07-18T02:06:38.683Z,5.70
2023-07-18T02:07:38.666Z,5.90
2023-07-18T02:08:38.650Z,5.50
2023-07-18T02:09:38.647Z,5.80
2023-07-18T02:10:38.647Z,5.90
2023-07-18T02:11:38.664Z,5.80
2023-07-18T02:12:38.611Z,5.70
2023-07-18T02:13:38.626Z,5.60
2023-07-18T02:14:38.599Z,5.90
2023-07-18T02:15:38.600Z,5.70
2023-07-18T02:16:38.613Z,5.80
2023-07-18T02:17:38.601Z,5.50
2023-07-18T02:18:38.570Z,5.60
2023-07-18T02:19:38.567Z,5.40
2023-07-18T02:20:38.596Z,6.40
2023-07-18T02:21:38.572Z,6.00
2023-07-18T02:22:38.577Z,5.80
2023-07-18T02:23:38.577Z,6.10
2023-07-18T02:24:38.556Z,6.10
2023-07-18T02:25:38.531Z,5.90
2023-07-18T02:26:38.513Z,5.80
2023-07-18T02:27:38.520Z,5.60
2023-07-18T02:28:38.524Z,5.80
2023-07-18T02:29:38.548Z,6.10
2023-07-18T02:30:38.544Z,5.80
2023-07-18T02:31:38.523Z,5.80
2023-07-18T02:32:38.480Z,6.40
2023-07-18T02:33:38.490Z,5.80
2023-07-18T02:34:38.508Z,5.80
2023-07-18T02:35:38.475Z,6.40
2023-07-18T02:36:38.460Z,6.30
2023-07-18T02:37:38.463Z,6.00
2023-07-18T02:38:38.431Z,6.20
2023-07-18T02:39:38.463Z,6.00
2023-07-18T02:40:38.459Z,6.90
2023-07-18T02:41:38.449Z,5.60
2023-07-18T02:42:38.440Z,5.90
2023-07-18T02:43:38.415Z,5.90
2023-07-18T02:44:38.389Z,5.40
2023-07-18T02:45:38.417Z,5.30
2023-07-18T02:46:38.419Z,5.00
2023-07-18T02:47:38.467Z,5.50
2023-07-18T02:48:38.361Z,6.10
2023-07-18T02:49:38.362Z,5.40
2023-07-18T02:50:38.373Z,5.40
2023-07-18T02:51:38.350Z,5.90
2023-07-18T02:52:38.330Z,6.30
2023-07-18T02:53:38.343Z,6.00
2023-07-18T02:54:38.322Z,6.20
2023-07-18T02:55:38.327Z,6.30
2023-07-18T02:56:38.311Z,7.00
2023-07-18T02:57:38.397Z,6.50
2023-07-18T02:58:38.299Z,6.30
2023-07-18T02:59:38.310Z,6.30
2023-07-18T03:00:38.312Z,5.80
2023-07-18T03:01:38.300Z,6.90
2023-07-18T03:02:38.334Z,6.30
2023-07-18T03:03:38.374Z,6.00
2023-07-18T03:04:38.231Z,6.10
2023-07-18T03:05:38.238Z,6.60
2023-07-18T03:06:38.227Z,6.30
2023-07-18T03:07:38.217Z,6.20
2023-07-18T03:08:38.239Z,6.40
2023-07-18T03:09:38.214Z,6.10
2023-07-18T03:10:38.213Z,6.30
2023-07-18T03:11:38.205Z,6.70
2023-07-18T03:12:38.178Z,6.50
2023-07-18T03:13:38.189Z,6.80
2023-07-18T03:14:38.183Z,6.80
2023-07-18T03:15:38.178Z,6.30
2023-07-18T03:16:38.199Z,6.30
2023-07-18T03:17:38.203Z,7.00
2023-07-18T03:18:38.128Z,6.20
2023-07-18T03:19:38.171Z,6.10
2023-07-18T03:20:38.132Z,6.90
2023-07-18T03:21:38.142Z,6.90
2023-07-18T03:22:38.192Z,6.70
2023-07-18T03:23:38.125Z,6.90
2023-07-18T03:24:38.114Z,7.30
2023-07-18T03:25:38.103Z,7.50
2023-07-18T03:26:38.082Z,7.50
2023-07-18T03:27:38.081Z,6.90
2023-07-18T03:28:38.094Z,6.90
2023-07-18T03:29:38.095Z,7.40
2023-07-18T03:30:38.056Z,7.40
2023-07-18T03:31:38.080Z,6.60
2023-07-18T03:32:38.034Z,6.60
2023-07-18T03:33:38.036Z,6.40
2023-07-18T03:34:38.020Z,6.50
2023-07-18T03:35:38.078Z,6.90
2023-07-18T03:36:38.502Z,6.40
2023-07-18T03:37:38.009Z,6.60
2023-07-18T03:38:37.995Z,6.80
2023-07-18T03:39:37.997Z,6.80
2023-07-18T03:40:37.966Z,6.50
2023-07-18T03:41:38.016Z,6.60
2023-07-18T03:42:37.948Z,6.60
2023-07-18T03:43:37.973Z,7.00
2023-07-18T03:44:37.932Z,6.40
2023-07-18T03:45:37.955Z,7.60
2023-07-18T03:46:38.043Z,7.30
2023-07-18T03:47:37.995Z,7.20
2023-07-18T03:48:37.968Z,6.70
2023-07-18T03:49:37.914Z,7.60
2023-07-18T03:50:37.908Z,7.10
2023-07-18T03:51:38.149Z,7.50
2023-07-18T03:52:37.892Z,7.40
2023-07-18T03:53:37.929Z,7.60
2023-07-18T03:54:37.893Z,7.30
2023-07-18T03:55:37.887Z,7.70
2023-07-18T03:56:37.874Z,7.40
2023-07-18T03:57:37.866Z,7.70
2023-07-18T03:58:37.848Z,7.20
2023-07-18T03:59:37.859Z,7.80
2023-07-18T04:00:37.843Z,7.20
2023-07-18T04:01:37.890Z,7.60
2023-07-18T04:02:37.855Z,7.60
2023-07-18T04:03:37.827Z,7.30
2023-07-18T04:04:37.812Z,7.70
2023-07-18T04:05:37.801Z,7.20
2023-07-18T04:06:37.796Z,7.20
2023-07-18T04:07:37.812Z,7.20
2023-07-18T04:08:39.244Z,7.20
2023-07-18T04:09:37.791Z,6.70
2023-07-18T04:10:37.749Z,6.60
2023-07-18T04:11:37.761Z,6.70
2023-07-18T04:12:37.754Z,6.20
2023-07-18T04:13:37.751Z,6.40
2023-07-18T04:14:37.727Z,6.50
2023-07-18T04:15:37.742Z,6.00
2023-07-18T04:16:37.747Z,6.40
2023-07-18T04:17:37.994Z,6.40
2023-07-18T04:18:37.733Z,6.00
2023-07-18T04:19:37.733Z,6.30
2023-07-18T04:20:37.671Z,5.90
2023-07-18T04:21:37.676Z,5.40
2023-07-18T04:22:37.672Z,5.80
2023-07-18T04:23:37.676Z,5.60
2023-07-18T04:24:37.680Z,5.60
2023-07-18T04:25:37.651Z,5.50
2023-07-18T04:26:37.646Z,6.10
2023-07-18T04:27:37.670Z,5.50
2023-07-18T04:28:37.654Z,5.50
2023-07-18T04:29:37.644Z,6.00
2023-07-18T04:30:37.611Z,5.50
2023-07-18T04:31:37.614Z,5.20
2023-07-18T04:32:37.630Z,5.30
2023-07-18T04:33:37.685Z,5.80
2023-07-18T04:34:37.625Z,5.20
2023-07-18T04:35:37.578Z,5.30
2023-07-18T04:36:37.573Z,5.60
2023-07-18T04:37:37.566Z,5.40
2023-07-18T04:38:37.536Z,5.20
2023-07-18T04:39:37.564Z,5.10
2023-07-18T04:40:37.532Z,5.20
2023-07-18T04:41:49.398Z,5.00
2023-07-18T04:42:38.555Z,5.00
2023-07-18T04:43:37.510Z,4.70
2023-07-18T04:44:37.479Z,5.00
2023-07-18T04:45:37.499Z,5.20
2023-07-18T04:46:37.767Z,5.20
2023-07-18T04:47:37.617Z,5.00
2023-07-18T04:48:37.450Z,5.30
2023-07-18T04:49:37.475Z,5.60
2023-07-18T04:50:37.462Z,5.20
2023-07-18T04:51:37.466Z,4.70
2023-07-18T04:52:37.432Z,4.80
2023-07-18T04:53:37.436Z,4.90
2023-07-18T04:54:37.393Z,4.80
2023-07-18T04:55:37.396Z,4.60
2023-07-18T04:56:37.372Z,4.60
2023-07-18T04:57:37.406Z,4.50
2023-07-18T04:58:37.392Z,4.40
2023-07-18T04:59:37.365Z,4.50
2023-07-18T05:00:37.368Z,4.30
2023-07-18T05:01:37.365Z,4.60
2023-07-18T05:02:37.365Z,4.20
2023-07-18T05:03:48.230Z,4.50
2023-07-18T05:04:38.457Z,4.40
2023-07-18T05:05:37.315Z,4.60
2023-07-18T05:06:37.295Z,4.20
2023-07-18T05:07:37.317Z,4.50
2023-07-18T05:08:37.270Z,4.30
2023-07-18T05:09:37.303Z,4.30
2023-07-18T05:10:37.256Z,4.20
2023-07-18T05:11:37.277Z,4.30
2023-07-18T05:12:37.235Z,4.40
2023-07-18T05:13:37.272Z,3.70
2023-07-18T05:14:37.223Z,4.20
2023-07-18T05:15:37.284Z,4.00
2023-07-18T05:16:37.205Z,4.40
2023-07-18T05:17:37.263Z,4.30
2023-07-18T05:18:37.254Z,4.00
2023-07-18T05:19:37.201Z,4.30
2023-07-18T05:20:37.172Z,4.40
2023-07-18T05:21:37.173Z,4.10
2023-07-18T05:22:37.169Z,3.90
2023-07-18T05:23:37.162Z,4.00
2023-07-18T05:24:37.170Z,4.20
2023-07-18T05:25:40.435Z,4.10
2023-07-18T05:26:37.118Z,4.10
2023-07-18T05:27:37.148Z,4.10
2023-07-18T05:28:37.108Z,4.50
2023-07-18T05:29:37.141Z,3.90
2023-07-18T05:30:37.109Z,4.00
2023-07-18T05:31:37.207Z,4.30
2023-07-18T05:32:37.090Z,4.70
2023-07-18T05:33:37.103Z,4.30
2023-07-18T05:34:37.080Z,4.40
2023-07-18T05:35:37.056Z,4.30
2023-07-18T05:36:37.062Z,4.10
2023-07-18T05:37:37.069Z,4.30
2023-07-18T05:38:37.028Z,4.30
2023-07-18T05:39:37.033Z,3.70
2023-07-18T05:40:37.055Z,4.20
2023-07-18T05:41:37.017Z,4.10
2023-07-18T05:42:36.986Z,4.20
2023-07-18T05:43:37.001Z,4.20
2023-07-18T05:44:37.050Z,4.30
2023-07-18T05:45:37.007Z,4.60
2023-07-18T05:46:39.783Z,4.20
2023-07-18T05:47:38.240Z,4.20
2023-07-18T05:48:36.960Z,4.20
2023-07-18T05:49:36.967Z,4.30
2023-07-18T05:50:36.967Z,4.30
2023-07-18T05:51:36.939Z,4.30
2023-07-18T05:52:36.922Z,4.40
2023-07-18T05:53:36.915Z,4.30
2023-07-18T05:54:39.499Z,3.90
2023-07-18T05:55:36.920Z,3.80
2023-07-18T05:56:36.896Z,4.00
2023-07-18T05:57:36.907Z,3.80
2023-07-18T05:58:36.878Z,3.80
2023-07-18T05:59:36.916Z,3.70
2023-07-18T06:00:36.881Z,4.00
2023-07-18T06:01:36.923Z,4.00
2023-07-18T06:02:36.878Z,4.20
2023-07-18T06:03:36.964Z,4.10
2023-07-18T06:04:36.847Z,3.80
2023-07-18T06:05:36.857Z,4.10
2023-07-18T06:06:36.827Z,4.00
2023-07-18T06:07:36.846Z,4.00
2023-07-18T06:08:36.802Z,4.30
2023-07-18T06:09:36.805Z,4.20
2023-07-18T06:10:36.790Z,4.30
2023-07-18T06:11:36.806Z,4.00
2023-07-18T06:12:36.777Z,4.10
2023-07-18T06:13:36.826Z,4.40
2023-07-18T06:14:36.815Z,3.90
2023-07-18T06:15:36.773Z,4.80
2023-07-18T06:16:36.792Z,3.70
2023-07-18T06:17:36.813Z,4.20
2023-07-18T06:18:36.726Z,4.00
2023-07-18T06:19:36.765Z,4.10
2023-07-18T06:20:36.717Z,3.90
2023-07-18T06:21:36.750Z,3.90
2023-07-18T06:22:36.758Z,4.20
2023-07-18T06:23:36.720Z,4.30
2023-07-18T06:24:36.693Z,3.90
2023-07-18T06:25:36.726Z,4.20
2023-07-18T06:26:36.675Z,4.00
2023-07-18T06:27:36.719Z,3.80
2023-07-18T06:28:36.674Z,3.90
2023-07-18T06:29:36.681Z,3.90
2023-07-18T06:30:36.728Z,4.00
2023-07-18T06:31:36.787Z,3.90
2023-07-18T06:32:36.642Z,4.00
2023-07-18T06:33:36.652Z,4.00
2023-07-18T06:34:36.658Z,3.80
2023-07-18T06:35:36.631Z,3.80
2023-07-18T06:36:36.663Z,4.00
2023-07-18T06:37:36.614Z,3.80
2023-07-18T06:38:36.603Z,3.90
2023-07-18T06:39:36.633Z,3.80
2023-07-18T06:40:36.619Z,3.80
2023-07-18T06:41:36.600Z,4.00
2023-07-18T06:42:36.561Z,3.70
2023-07-18T06:43:36.570Z,3.70
2023-07-18T06:44:36.556Z,3.60
2023-07-18T06:45:36.588Z,3.60
2023-07-18T06:46:36.560Z,3.70
2023-07-18T06:47:36.610Z,3.90
2023-07-18T06:48:36.519Z,3.80
2023-07-18T06:49:36.539Z,3.70
2023-07-18T06:50:36.611Z,3.60
2023-07-18T06:51:36.530Z,3.70
2023-07-18T06:52:37.112Z,3.60
2023-07-18T06:53:36.507Z,3.70
2023-07-18T06:54:36.482Z,3.90
2023-07-18T06:55:36.490Z,3.30
2023-07-18T06:56:36.498Z,3.70
2023-07-18T06:57:36.487Z,3.60
2023-07-18T06:58:36.461Z,3.60
2023-07-18T06:59:36.497Z,3.40
2023-07-18T07:00:36.467Z,3.10
2023-07-18T07:01:36.515Z,3.50
2023-07-18T07:02:36.463Z,3.60
2023-07-18T07:03:36.498Z,3.20
2023-07-18T07:04:36.418Z,3.30
2023-07-18T07:05:36.461Z,3.50
2023-07-18T07:06:36.407Z,3.30
2023-07-18T07:07:36.418Z,3.10
2023-07-18T07:08:36.385Z,3.30
2023-07-18T07:09:36.398Z,3.20
2023-07-18T07:10:36.381Z,3.10
2023-07-18T07:11:36.425Z,3.30
2023-07-18T07:12:37.456Z,3.10
2023-07-18T07:13:36.394Z,3.60
2023-07-18T07:14:36.349Z,3.00
2023-07-18T07:15:36.394Z,2.80
2023-07-18T07:16:36.454Z,2.90
2023-07-18T07:17:36.385Z,3.00
2023-07-18T07:18:36.342Z,2.90
2023-07-18T07:19:36.352Z,2.90
2023-07-18T07:20:36.326Z,2.70
2023-07-18T07:21:36.441Z,3.00
2023-07-18T07:22:36.403Z,3.00
2023-07-18T07:23:36.324Z,2.90
2023-07-18T07:24:36.280Z,2.60
2023-07-18T07:25:36.286Z,2.80
2023-07-18T07:26:36.295Z,2.40
2023-07-18T07:27:36.274Z,2.30
2023-07-18T07:28:36.269Z,2.40
2023-07-18T07:29:36.253Z,2.50
2023-07-18T07:30:36.258Z,2.50
2023-07-18T07:31:36.275Z,2.50
2023-07-18T07:32:36.395Z,2.20
2023-07-18T07:33:37.499Z,2.80
2023-07-18T07:34:37.705Z,2.30
2023-07-18T07:35:36.212Z,2.10
2023-07-18T07:36:36.247Z,2.40
2023-07-18T07:37:36.211Z,2.10
2023-07-18T07:38:36.183Z,2.00
2023-07-18T07:39:36.221Z,2.00
2023-07-18T07:40:36.182Z,2.20
2023-07-18T07:41:36.180Z,2.10
2023-07-18T07:42:36.232Z,2.20
2023-07-18T07:43:36.165Z,1.90
2023-07-18T07:44:36.134Z,2.00
2023-07-18T07:45:36.192Z,1.80
2023-07-18T07:46:36.151Z,1.70
2023-07-18T07:47:36.164Z,1.80
2023-07-18T07:48:36.119Z,1.60
2023-07-18T07:49:36.128Z,1.50
2023-07-18T07:50:36.134Z,1.40
2023-07-18T07:51:36.155Z,1.20
2023-07-18T07:52:36.098Z,1.30
2023-07-18T07:53:36.121Z,1.20
2023-07-18T07:54:36.103Z,1.60
2023-07-18T07:55:36.091Z,1.70
2023-07-18T07:56:36.066Z,1.60
2023-07-18T07:57:36.100Z,1.20
2023-07-18T07:58:36.057Z,1.10
2023-07-18T07:59:36.052Z,1.00
2023-07-18T08:00:36.053Z,1.20
2023-07-18T08:01:36.074Z,1.30
2023-07-18T08:02:36.082Z,1.40
2023-07-18T08:03:36.048Z,1.40
2023-07-18T08:04:36.043Z,1.40
2023-07-18T08:05:36.033Z,1.20
2023-07-18T08:06:36.027Z,0.70
2023-07-18T08:07:35.996Z,1.10
2023-07-18T08:08:35.994Z,1.00
2023-07-18T08:09:35.983Z,1.20
2023-07-18T08:10:35.963Z,0.90
2023-07-18T08:11:35.961Z,1.50
2023-07-18T08:12:35.987Z,1.30
2023-07-18T08:13:35.970Z,1.40
2023-07-18T08:14:36.162Z,1.30
2023-07-18T08:15:35.982Z,1.40
2023-07-18T08:16:35.965Z,1.30
2023-07-18T08:17:35.965Z,1.30
2023-07-18T08:18:35.934Z,1.20
2023-07-18T08:19:35.916Z,1.30
2023-07-18T08:20:35.874Z,1.10
2023-07-18T08:21:35.915Z,1.20
2023-07-18T08:22:35.893Z,1.20
2023-07-18T08:23:35.879Z,1.00
2023-07-18T08:24:35.884Z,0.90
2023-07-18T08:25:35.901Z,1.00
2023-07-18T08:26:35.860Z,1.00
2023-07-18T08:27:35.864Z,1.40
2023-07-18T08:28:35.836Z,1.10
2023-07-18T08:29:35.889Z,1.30
2023-07-18T08:30:35.849Z,1.30
2023-07-18T08:31:35.873Z,1.20
2023-07-18T08:32:35.863Z,1.40
2023-07-18T08:33:35.816Z,1.40
2023-07-18T08:34:35.803Z,1.50
2023-07-18T08:35:35.834Z,1.30
2023-07-18T08:36:35.781Z,1.50
2023-07-18T08:37:35.807Z,1.60
2023-07-18T08:38:35.793Z,1.40
2023-07-18T08:39:35.792Z,1.40
2023-07-18T08:40:35.808Z,1.40
2023-07-18T08:41:35.761Z,1.50
2023-07-18T08:42:35.746Z,1.40
2023-07-18T08:43:35.776Z,1.30
2023-07-18T08:44:35.745Z,1.60
2023-07-18T08:45:35.758Z,1.60
2023-07-18T08:46:35.796Z,1.60
2023-07-18T08:47:35.782Z,1.40
2023-07-18T08:48:35.726Z,1.50
2023-07-18T08:49:36.727Z,1.50
2023-07-18T08:50:35.709Z,1.40
2023-07-18T08:51:35.705Z,1.50
2023-07-18T08:52:35.726Z,1.60
2023-07-18T08:53:35.697Z,1.60
2023-07-18T08:54:35.898Z,1.50
2023-07-18T08:55:35.730Z,1.60
2023-07-18T08:56:35.659Z,1.40
2023-07-18T08:57:35.680Z,1.60
2023-07-18T08:58:35.665Z,1.50
2023-07-18T08:59:35.681Z,1.60
2023-07-18T09:00:35.634Z,1.60
2023-07-18T09:01:35.660Z,1.40
2023-07-18T09:02:35.712Z,1.30
2023-07-18T09:03:35.662Z,1.60
2023-07-18T09:04:35.608Z,1.50
2023-07-18T09:05:35.637Z,1.40
2023-07-18T09:06:35.583Z,1.20
2023-07-18T09:07:35.601Z,1.30
2023-07-18T09:08:35.568Z,1.50
2023-07-18T09:09:35.590Z,1.40
2023-07-18T09:10:35.570Z,1.40
2023-07-18T09:11:35.611Z,1.40
2023-07-18T09:12:35.548Z,1.20
2023-07-18T09:13:35.555Z,1.40
2023-07-18T09:14:35.578Z,1.40
2023-07-18T09:15:35.555Z,1.30
2023-07-18T09:16:35.521Z,1.40
2023-07-18T09:17:35.683Z,1.40
2023-07-18T09:18:35.529Z,1.60
2023-07-18T09:19:35.526Z,1.40
2023-07-18T09:20:35.520Z,1.40
2023-07-18T09:21:35.536Z,1.30
2023-07-18T09:22:35.535Z,1.30
2023-07-18T09:23:35.508Z,1.10
2023-07-18T09:24:35.476Z,1.30
2023-07-18T09:25:35.512Z,1.20
2023-07-18T09:26:35.457Z,1.40
2023-07-18T09:27:35.483Z,1.30
2023-07-18T09:28:35.446Z,1.20
2023-07-18T09:29:35.456Z,1.40
2023-07-18T09:30:35.422Z,1.30
2023-07-18T09:31:35.485Z,1.60
2023-07-18T09:32:35.470Z,1.40
2023-07-18T09:33:35.416Z,1.20
2023-07-18T09:34:35.414Z,1.30
2023-07-18T09:35:35.449Z,1.50
2023-07-18T09:36:36.979Z,1.60
2023-07-18T09:37:35.416Z,1.30
2023-07-18T09:38:35.384Z,1.30
2023-07-18T09:39:35.405Z,1.60
2023-07-18T09:40:35.399Z,1.40
2023-07-18T09:41:35.427Z,1.30
2023-07-18T09:42:35.374Z,1.30
2023-07-18T09:43:36.727Z,1.60
2023-07-18T09:44:37.301Z,1.40
2023-07-18T09:45:35.343Z,1.60
2023-07-18T09:46:35.446Z,1.60
2023-07-18T09:47:35.375Z,1.30
2023-07-18T09:48:44.595Z,1.30
2023-07-18T09:49:40.795Z,1.50
2023-07-18T09:50:35.298Z,1.60
2023-07-18T09:51:35.334Z,1.40
2023-07-18T09:52:35.295Z,1.40
2023-07-18T09:53:35.312Z,1.50
2023-07-18T09:54:35.348Z,1.40
2023-07-18T09:55:35.300Z,1.40
2023-07-18T09:56:35.245Z,1.30
2023-07-18T09:57:35.277Z,1.60
2023-07-18T09:58:35.237Z,1.50
2023-07-18T09:59:35.248Z,1.40
2023-07-18T10:00:35.228Z,1.40
2023-07-18T10:01:35.290Z,1.60
2023-07-18T10:02:35.354Z,1.80
2023-07-18T10:03:35.282Z,1.50
2023-07-18T10:04:35.224Z,1.60
2023-07-18T10:05:35.251Z,1.40
2023-07-18T10:06:35.193Z,1.40
2023-07-18T10:07:35.200Z,1.50
2023-07-18T10:08:35.193Z,1.50
2023-07-18T10:09:35.187Z,1.40
2023-07-18T10:10:35.199Z,1.40
2023-07-18T10:11:35.208Z,1.60
2023-07-18T10:12:35.178Z,1.60
2023-07-18T10:13:35.211Z,1.40
2023-07-18T10:14:35.132Z,1.50
2023-07-18T10:15:35.151Z,1.50
2023-07-18T10:16:35.142Z,1.80
2023-07-18T10:17:35.339Z,1.60
2023-07-18T10:18:35.153Z,1.30
2023-07-18T10:19:35.121Z,1.60
2023-07-18T10:20:37.868Z,1.70
2023-07-18T10:21:35.116Z,1.30
2023-07-18T10:22:35.142Z,1.70
2023-07-18T10:23:35.091Z,1.40
2023-07-18T10:24:35.086Z,1.70
2023-07-18T10:25:35.067Z,1.60
2023-07-18T10:26:35.059Z,1.40
2023-07-18T10:27:35.050Z,1.70
2023-07-18T10:28:35.036Z,1.60
2023-07-18T10:29:35.044Z,1.50
2023-07-18T10:30:35.058Z,1.80
2023-07-18T10:31:35.070Z,1.60
2023-07-18T10:32:35.058Z,1.50
2023-07-18T10:33:35.014Z,1.40
2023-07-18T10:34:34.999Z,1.70
2023-07-18T10:35:35.037Z,1.60
2023-07-18T10:36:34.976Z,1.40
2023-07-18T10:37:35.021Z,1.60
2023-07-18T10:38:35.015Z,1.60
2023-07-18T10:39:34.977Z,1.60
2023-07-18T10:40:34.949Z,1.60
2023-07-18T10:41:34.984Z,1.40
2023-07-18T10:42:34.944Z,1.40
2023-07-18T10:43:34.952Z,1.70
2023-07-18T10:44:34.930Z,1.70
2023-07-18T10:45:35.004Z,1.60
2023-07-18T10:46:34.979Z,1.70
2023-07-18T10:47:34.960Z,1.40
2023-07-18T10:48:34.890Z,1.60
2023-07-18T10:49:34.921Z,1.50
2023-07-18T10:50:34.893Z,1.50
2023-07-18T10:51:34.904Z,1.60
2023-07-18T10:52:34.901Z,1.30
2023-07-18T10:53:34.930Z,1.70
2023-07-18T10:54:34.849Z,1.50
2023-07-18T10:55:34.887Z,1.70
2023-07-18T10:56:34.869Z,1.70
2023-07-18T10:57:34.898Z,1.50
2023-07-18T10:58:34.854Z,1.50
2023-07-18T10:59:34.841Z,1.70
2023-07-18T11:00:34.827Z,1.60
2023-07-18T11:01:34.854Z,1.70
2023-07-18T11:02:34.844Z,1.60
2023-07-18T11:03:34.865Z,1.50
2023-07-18T11:04:34.860Z,1.50
2023-07-18T11:05:34.807Z,1.70
2023-07-18T11:06:34.786Z,1.60
2023-07-18T11:07:34.817Z,1.70
2023-07-18T11:08:34.772Z,1.70
2023-07-18T11:09:34.814Z,1.30
2023-07-18T11:10:34.861Z,2.40
2023-07-18T11:11:34.805Z,1.50
2023-07-18T11:12:34.748Z,1.70
2023-07-18T11:13:34.789Z,1.60
2023-07-18T11:14:34.737Z,1.50
2023-07-18T11:15:34.729Z,1.60
2023-07-18T11:16:34.799Z,1.70
2023-07-18T11:17:34.739Z,1.70
2023-07-18T11:18:34.787Z,1.50
2023-07-18T11:19:34.705Z,1.80
2023-07-18T11:20:34.688Z,1.50
2023-07-18T11:21:34.702Z,1.80
2023-07-18T11:22:34.756Z,1.60
2023-07-18T11:23:34.677Z,1.60
2023-07-18T11:24:34.677Z,1.60
2023-07-18T11:25:34.674Z,1.80
2023-07-18T11:26:34.650Z,1.60
2023-07-18T11:27:34.669Z,1.60
2023-07-18T11:28:34.619Z,1.70
2023-07-18T11:29:34.643Z,1.50
2023-07-18T11:30:34.633Z,1.70
2023-07-18T11:31:40.777Z,1.60
2023-07-18T11:32:35.671Z,1.60
2023-07-18T11:33:34.616Z,1.90
2023-07-18T11:34:34.598Z,1.70
2023-07-18T11:35:34.623Z,1.80
2023-07-18T11:36:34.605Z,1.50
2023-07-18T11:37:41.545Z,1.80
2023-07-18T11:38:35.541Z,1.80
2023-07-18T11:39:34.584Z,1.60
2023-07-18T11:40:34.555Z,1.90
2023-07-18T11:41:34.555Z,1.70
2023-07-18T11:42:34.533Z,1.80
2023-07-18T11:43:34.540Z,1.60
2023-07-18T11:44:34.542Z,1.80
2023-07-18T11:45:34.525Z,1.90
2023-07-18T11:46:34.509Z,1.70
2023-07-18T11:47:34.614Z,1.60
2023-07-18T11:48:34.593Z,1.90
2023-07-18T11:49:34.524Z,1.80
2023-07-18T11:50:34.493Z,1.60
2023-07-18T11:51:34.522Z,1.80
2023-07-18T11:52:34.454Z,1.70
2023-07-18T11:53:34.501Z,1.90
2023-07-18T11:54:34.492Z,1.80
2023-07-18T11:55:34.477Z,1.80
2023-07-18T11:56:34.418Z,1.80
2023-07-18T11:57:34.475Z,1.80
2023-07-18T11:58:34.459Z,1.80
2023-07-18T11:59:34.474Z,1.70
2023-07-18T12:00:34.392Z,1.60
2023-07-18T12:01:36.384Z,1.60
2023-07-18T12:02:34.484Z,2.00
2023-07-18T12:03:34.514Z,1.70
2023-07-18T12:04:34.409Z,1.60
2023-07-18T12:05:34.410Z,1.70
2023-07-18T12:06:34.379Z,1.50
2023-07-18T12:07:34.398Z,1.70
2023-07-18T12:08:34.376Z,1.60
2023-07-18T12:09:34.346Z,1.80
2023-07-18T12:10:34.369Z,1.80
2023-07-18T12:11:34.335Z,2.00
2023-07-18T12:12:34.333Z,1.80
2023-07-18T12:13:34.336Z,1.80
2023-07-18T12:14:34.351Z,1.80
2023-07-18T12:15:37.131Z,2.00
2023-07-18T12:16:34.352Z,1.60
2023-07-18T12:17:34.357Z,1.80
2023-07-18T12:18:34.272Z,1.80
2023-07-18T12:19:34.296Z,1.90
2023-07-18T12:20:34.291Z,1.90
2023-07-18T12:21:34.315Z,1.80
2023-07-18T12:22:34.357Z,1.70
2023-07-18T12:23:34.253Z,1.70
2023-07-18T12:24:34.259Z,2.10
2023-07-18T12:25:34.264Z,1.70
2023-07-18T12:26:34.235Z,1.70
2023-07-18T12:27:34.259Z,1.90
2023-07-18T12:28:34.197Z,1.90
2023-07-18T12:29:34.237Z,2.00
2023-07-18T12:30:34.208Z,1.90
2023-07-18T12:31:34.295Z,1.70
2023-07-18T12:32:34.280Z,1.80
2023-07-18T12:33:34.277Z,1.70
2023-07-18T12:34:34.162Z,2.10
2023-07-18T12:35:34.180Z,2.00
2023-07-18T12:36:34.154Z,2.00
2023-07-18T12:37:34.159Z,2.10
2023-07-18T12:38:34.147Z,2.00
2023-07-18T12:39:34.148Z,1.90
2023-07-18T12:40:34.199Z,1.70
2023-07-18T12:41:34.166Z,1.90
2023-07-18T12:42:34.102Z,1.70
2023-07-18T12:43:34.144Z,1.80
2023-07-18T12:44:34.132Z,1.80
2023-07-18T12:45:34.119Z,2.00
2023-07-18T12:46:34.118Z,1.60
2023-07-18T12:47:34.172Z,1.80
2023-07-18T12:48:34.089Z,2.00
2023-07-18T12:50:34.106Z,1.70
2023-07-18T12:51:34.114Z,1.90
2023-07-18T12:52:34.065Z,1.90
2023-07-18T12:53:34.072Z,1.90
2023-07-18T12:54:34.037Z,2.00
2023-07-18T12:55:34.050Z,1.90
2023-07-18T12:56:34.012Z,2.10
2023-07-18T12:57:34.020Z,1.90
2023-07-18T12:58:34.054Z,1.70
2023-07-18T12:59:34.040Z,1.60
2023-07-18T13:00:34.003Z,1.70
2023-07-18T13:01:34.042Z,2.20
2023-07-18T13:02:34.075Z,1.90
2023-07-18T13:03:34.480Z,1.80
2023-07-18T13:04:33.993Z,1.80
2023-07-18T13:05:34.009Z,1.80
2023-07-18T13:06:33.966Z,2.10
2023-07-18T13:07:33.981Z,1.70
2023-07-18T13:08:33.936Z,2.00
2023-07-18T13:09:33.933Z,2.10
2023-07-18T13:10:33.921Z,1.80
2023-07-18T13:11:33.958Z,2.10
2023-07-18T13:12:33.933Z,1.90
2023-07-18T13:13:33.924Z,1.80
2023-07-18T13:14:33.883Z,1.80
2023-07-18T13:15:33.893Z,1.90
2023-07-18T13:16:33.965Z,2.00
2023-07-18T13:17:33.902Z,2.00
2023-07-18T13:18:33.867Z,1.90
2023-07-18T13:19:33.875Z,2.00